Almaty Airport
UAAA : now visible

Airfield :











YOU CAN JOIN US ON...

 
LOGIN :

Register | Disclaimer

   EN    FR    IT 

 









Legend :    VFR   Marginal VFR   IFR   Intensive IFR   Very Intensive IFR
Visi :
Ceiling :
>= 8 km
>= 3000ft
5 to 8 km
1000 to 3000 ft
1500m to 5 km
500 to 1000 ft
800 to 1500m
200 to 500 ft
< 800m
< 200 ft
Symbols :   Thunderstorms  Fog  Heavy snow  Heavy precipitations  Wind > 20 kt






- Airport Elevation : 2234 ft
- IATA code : ALA


UAAA - Almaty

CURRENT METAR :
  • 211100Z 33001MPS 2100 BR BKN100 M04/M06 Q1021 R05L/3///50 R05R/3///45 NOSIG

EXPIRED METARs :
  • 211030Z 34002MPS 2200 BR SCT100 M04/M06 Q1021 R05L/3///50 R05R/3///45 NOSIG
  • 211000Z 35002MPS 300V020 2300 BR SCT100 M03/M05 Q1021 R05L/3///50 R05R/3///45 NOSIG
  • 210930Z 35002MPS 2100 BR SCT100 M03/M05 Q1021 R05L/3///50 R05R/3///45 NOSIG
  • 210900Z 35003MPS 1600 R05L/1600N R05R/1700N BR SCT100 M03/M05 Q1021 R05L/3///50 R05R/3///45 NOSIG
  • 210830Z VRB01MPS 1500 R23R/1600N R23L/1500N BR SCT100 M03/M04 Q1021 R23R/3///50 R23L/3///45 NOSIG

TAF TAF UAAA
Valid from the 21 at 06:00 until the 22 at 06:00 UTC


210500Z 2106/2206 26003MPS 1500 BR SCT011 BKN100 TXM02/2108Z TNM11/2201Z
TEMPO 2106/2108 VRB03MPS 0800 FZFG SCT006
TEMPO 2108/2111 3100
TEMPO 2111/2120 VRB02MPS 0200 FZFG VV002
TEMPO 2120/2206 0200 FZFG VV001



MET'MAP, your aeronautical weather chart ! - Copyright ORBIFLY December 2007 - Disclaimer

ORBIFLY MET'MAP TEAM :

Programming & Development : Alexandra Zaïnal
Concept & original design : Baudouin d'Aumeries
Assistance for programming : Marc-Olivier Méhu
Technical & hardware support : Manuel Goepfert

Contact : metmap@orbifly.com




SOURCES & CREDITS :

   NOAA       Earth
Advisory